Time;durP1;ratioP1;P1;durP2;ratioP2;P2;SDS_P1;SDS_P2;PMS_P1;PMS_P2;Temp;Humidity;BMP_temperature;BMP_pressure;BME280_temperature;BME280_humidity;BME280_pressure;Samples;Min_cycle;Max_cycle;Signal;HPM_P1;HPM_P2
2021/03/24 00:00:23;;;;;;;2.00;1.73;;;1.80;84.20;;;;;;5045752;28;20184;-72
2021/03/24 00:02:49;;;;;;;1.30;1.30;;;1.80;84.20;;;;;;5042941;28;20249;-73
2021/03/24 00:05:18;;;;;;;2.00;1.80;;;1.90;83.90;;;;;;5053323;28;20535;-73
2021/03/24 00:07:45;;;;;;;2.40;1.60;;;1.80;84.00;;;;;;5054934;28;20207;-72
2021/03/24 00:10:14;;;;;;;1.77;1.50;;;1.80;84.00;;;;;;5061969;28;20669;-72
2021/03/24 00:12:40;;;;;;;1.00;1.00;;;1.80;84.10;;;;;;5066732;28;20198;-73
2021/03/24 00:15:09;;;;;;;1.43;1.33;;;1.70;84.40;;;;;;5048443;28;20305;-72
2021/03/24 00:17:35;;;;;;;3.47;1.83;;;1.80;84.60;;;;;;5044682;28;20617;-73
2021/03/24 00:20:03;;;;;;;1.73;1.63;;;1.80;84.40;;;;;;5066847;28;20183;-73
2021/03/24 00:22:29;;;;;;;1.40;1.30;;;1.80;84.30;;;;;;5059960;28;20195;-74
2021/03/24 00:24:55;;;;;;;1.50;1.40;;;1.80;84.40;;;;;;5064331;28;20202;-74
2021/03/24 00:27:20;;;;;;;2.03;1.93;;;1.80;84.40;;;;;;5056852;28;20311;-72
2021/03/24 00:29:46;;;;;;;2.70;1.67;;;1.90;84.40;;;;;;5056769;28;20195;-73
2021/03/24 00:32:12;;;;;;;1.97;1.80;;;1.80;84.20;;;;;;5048435;28;20194;-73
2021/03/24 00:34:37;;;;;;;5.23;1.23;;;1.90;84.10;;;;;;5060432;28;20194;-72
2021/03/24 00:37:04;;;;;;;1.00;1.00;;;1.90;84.20;;;;;;5053981;28;20685;-73
2021/03/24 00:39:29;;;;;;;1.83;1.73;;;1.90;83.90;;;;;;5058194;28;20188;-72
2021/03/24 00:41:55;;;;;;;2.13;1.37;;;2.00;84.20;;;;;;5051424;28;20195;-72
2021/03/24 00:44:21;;;;;;;2.90;1.70;;;2.00;84.30;;;;;;5067177;28;20573;-72
2021/03/24 00:46:47;;;;;;;3.73;2.07;;;2.00;84.40;;;;;;5050006;28;21052;-72
2021/03/24 00:49:13;;;;;;;1.00;1.00;;;2.00;84.70;;;;;;5059215;28;20194;-73
2021/03/24 00:51:39;;;;;;;1.27;1.17;;;2.00;85.50;;;;;;5054976;28;20202;-73
2021/03/24 00:54:05;;;;;;;1.27;1.00;;;2.00;86.30;;;;;;5058418;28;20194;-72
2021/03/24 00:56:31;;;;;;;5.03;1.67;;;2.00;87.30;;;;;;5060482;28;20239;-73
2021/03/24 00:58:57;;;;;;;1.47;1.37;;;1.80;89.00;;;;;;5047618;28;20278;-72
2021/03/24 01:01:22;;;;;;;1.53;1.03;;;1.70;90.50;;;;;;5051044;28;20201;-72
2021/03/24 01:03:48;;;;;;;1.87;1.53;;;1.60;91.40;;;;;;5048817;28;20188;-72
2021/03/24 01:06:14;;;;;;;1.67;1.57;;;1.50;92.30;;;;;;5047421;28;20195;-74
2021/03/24 01:08:40;;;;;;;6.57;1.70;;;1.40;92.80;;;;;;5047303;28;20229;-73
2021/03/24 01:11:06;;;;;;;1.67;1.57;;;1.40;93.30;;;;;;5059165;28;20190;-73
2021/03/24 01:13:31;;;;;;;1.47;1.37;;;1.30;93.40;;;;;;5050946;28;20187;-73
2021/03/24 01:15:57;;;;;;;1.50;1.30;;;1.30;93.60;;;;;;5056709;28;20772;-73
2021/03/24 01:18:25;;;;;;;3.63;1.07;;;1.20;93.50;;;;;;5055186;28;20190;-73
2021/03/24 01:20:51;;;;;;;0.80;0.80;;;1.20;93.30;;;;;;5062457;28;20190;-73
2021/03/24 01:23:17;;;;;;;1.70;1.10;;;1.20;93.10;;;;;;5054060;28;20241;-73
2021/03/24 01:25:43;;;;;;;1.40;1.10;;;1.20;92.60;;;;;;5056170;28;20215;-75
2021/03/24 01:28:17;;;;;;;0.80;0.80;;;1.20;92.40;;;;;;5059360;28;20191;-74
2021/03/24 01:30:44;;;;;;;1.10;1.00;;;1.20;92.10;;;;;;5061884;28;20179;-73
2021/03/24 01:33:10;;;;;;;1.30;1.30;;;1.20;91.80;;;;;;5046905;28;20183;-73
2021/03/24 01:35:36;;;;;;;1.20;1.20;;;1.20;91.70;;;;;;5058613;28;20205;-74
2021/03/24 01:38:03;;;;;;;1.80;1.00;;;1.20;91.70;;;;;;5046027;28;20196;-72
2021/03/24 01:40:53;;;;;;;1.67;1.57;;;1.10;91.50;;;;;;5059499;28;20688;-73
2021/03/24 01:43:26;;;;;;;2.40;1.50;;;1.20;91.50;;;;;;5017435;28;20309;-73
2021/03/24 01:46:10;;;;;;;1.33;1.33;;;1.20;91.40;;;;;;5023811;28;20349;-73
2021/03/24 01:48:37;;;;;;;2.77;1.67;;;1.20;91.40;;;;;;4995313;28;20230;-73
2021/03/24 01:51:04;;;;;;;1.20;1.20;;;1.20;91.40;;;;;;5005515;28;20213;-74
2021/03/24 01:53:33;;;;;;;1.47;1.37;;;1.20;91.20;;;;;;5006538;28;20975;-73
2021/03/24 01:55:59;;;;;;;1.07;1.07;;;1.30;91.00;;;;;;5014391;28;20180;-73
2021/03/24 01:58:24;;;;;;;1.73;1.63;;;1.30;91.30;;;;;;5006899;28;21163;-73
2021/03/24 02:00:52;;;;;;;3.33;2.33;;;1.30;91.60;;;;;;4988117;28;21291;-73
2021/03/24 02:03:25;;;;;;;1.30;1.20;;;1.30;91.80;;;;;;5003851;28;20239;-73
2021/03/24 02:05:53;;;;;;;1.40;1.40;;;1.20;92.10;;;;;;5010319;28;20212;-73
2021/03/24 02:08:26;;;;;;;2.13;1.80;;;1.20;92.00;;;;;;4998387;28;20192;-73
2021/03/24 02:11:16;;;;;;;1.87;1.73;;;1.20;92.00;;;;;;5016903;28;20185;-73
2021/03/24 02:13:48;;;;;;;1.70;1.60;;;1.20;92.00;;;;;;5004298;28;20697;-73
2021/03/24 02:16:24;;;;;;;2.10;2.00;;;1.20;91.90;;;;;;5003451;28;20374;-73
2021/03/24 02:18:53;;;;;;;2.67;2.47;;;1.20;92.10;;;;;;4997256;28;20200;-73
2021/03/24 02:21:24;;;;;;;2.30;1.97;;;1.20;92.00;;;;;;5055097;28;20206;-73
2021/03/24 02:24:21;;;;;;;1.77;1.67;;;1.20;91.90;;;;;;5049167;28;20203;-73
2021/03/24 02:27:10;;;;;;;1.60;1.60;;;1.20;91.70;;;;;;5045375;28;20630;-73
2021/03/24 02:29:42;;;;;;;1.73;1.63;;;1.20;91.70;;;;;;5054561;28;20290;-73
2021/03/24 02:32:12;;;;;;;2.30;1.87;;;1.30;91.50;;;;;;5045774;28;20690;-73
2021/03/24 02:34:39;;;;;;;1.77;1.77;;;1.30;91.40;;;;;;5044731;28;20191;-73
2021/03/24 02:37:07;;;;;;;1.60;1.50;;;1.30;91.40;;;;;;5060667;28;20269;-73
2021/03/24 02:39:33;;;;;;;1.57;1.57;;;1.30;91.60;;;;;;5055668;28;20278;-73
2021/03/24 02:42:03;;;;;;;2.30;2.10;;;1.30;91.70;;;;;;5058225;28;20207;-73
2021/03/24 02:44:29;;;;;;;2.10;1.97;;;1.30;91.70;;;;;;5085444;28;20191;-73
2021/03/24 02:46:57;;;;;;;2.13;2.00;;;1.30;91.60;;;;;;5063434;28;20225;-73
2021/03/24 02:49:25;;;;;;;1.73;1.73;;;1.30;91.80;;;;;;5051788;28;20198;-73
2021/03/24 02:51:51;;;;;;;2.60;2.10;;;1.30;91.80;;;;;;5059080;28;20539;-74
2021/03/24 02:54:20;;;;;;;2.60;1.90;;;1.30;91.70;;;;;;5046291;28;20188;-73
2021/03/24 02:56:47;;;;;;;2.37;2.20;;;1.30;91.60;;;;;;5045802;28;20203;-73
2021/03/24 02:59:15;;;;;;;2.10;1.80;;;1.30;91.50;;;;;;5045033;28;20192;-73
2021/03/24 03:02:01;;;;;;;2.47;2.37;;;1.30;91.50;;;;;;5057586;28;20246;-73
2021/03/24 03:04:43;;;;;;;4.93;1.80;;;1.20;91.40;;;;;;5047621;28;20269;-73
2021/03/24 03:07:27;;;;;;;2.43;2.23;;;1.30;91.40;;;;;;5071983;28;20704;-72
2021/03/24 03:10:14;;;;;;;2.83;2.53;;;1.30;91.50;;;;;;5047698;28;20183;-73
2021/03/24 03:12:52;;;;;;;2.10;2.00;;;1.30;91.60;;;;;;5065272;28;20178;-72
2021/03/24 03:15:25;;;;;;;2.93;2.30;;;1.30;91.60;;;;;;5052379;28;20183;-72
2021/03/24 03:17:56;;;;;;;2.17;1.90;;;1.20;91.80;;;;;;5059432;28;20183;-73
2021/03/24 03:20:26;;;;;;;2.97;2.77;;;1.20;92.20;;;;;;5040557;28;20664;-73
2021/03/24 03:22:59;;;;;;;6.43;2.70;;;1.20;92.80;;;;;;5069608;28;20191;-73
2021/03/24 03:25:29;;;;;;;1.77;1.70;;;1.20;92.90;;;;;;5054985;28;20550;-72
2021/03/24 03:27:59;;;;;;;2.43;2.23;;;1.20;93.10;;;;;;5062337;28;20276;-74
2021/03/24 03:30:28;;;;;;;5.47;2.20;;;1.20;93.40;;;;;;5054049;28;20225;-72
2021/03/24 03:32:57;;;;;;;2.13;2.03;;;1.20;94.50;;;;;;5044534;28;20233;-74
2021/03/24 03:35:24;;;;;;;2.47;2.33;;;1.10;95.80;;;;;;5058928;28;20260;-72
2021/03/24 03:37:55;;;;;;;2.50;2.40;;;1.00;96.70;;;;;;5053976;28;20206;-72
2021/03/24 03:40:24;;;;;;;2.03;1.93;;;0.90;96.90;;;;;;5057647;28;20179;-73
2021/03/24 03:42:52;;;;;;;2.27;2.17;;;0.90;97.00;;;;;;5064448;28;20603;-75
2021/03/24 03:45:18;;;;;;;2.13;2.03;;;0.80;97.10;;;;;;5047678;28;20728;-73
2021/03/24 03:47:45;;;;;;;2.20;2.03;;;0.80;97.30;;;;;;5054448;28;20954;-73
2021/03/24 03:50:16;;;;;;;2.87;2.53;;;0.80;97.10;;;;;;5090871;28;20215;-73
2021/03/24 03:52:54;;;;;;;3.80;2.77;;;0.80;97.00;;;;;;5040266;28;20188;-72
2021/03/24 03:55:34;;;;;;;2.27;2.17;;;0.80;96.70;;;;;;5055467;28;20186;-72
2021/03/24 03:58:06;;;;;;;2.10;2.00;;;0.80;96.50;;;;;;5057040;28;20814;-72
2021/03/24 04:00:39;;;;;;;6.60;3.23;;;0.80;96.40;;;;;;5063679;28;20833;-73
2021/03/24 04:03:16;;;;;;;1.87;1.60;;;0.70;96.30;;;;;;5047675;28;20179;-73
2021/03/24 04:05:58;;;;;;;1.57;1.47;;;0.70;95.90;;;;;;5055884;28;20187;-72
2021/03/24 04:08:30;;;;;;;2.93;2.27;;;0.70;95.70;;;;;;5064277;28;20229;-73
2021/03/24 04:10:59;;;;;;;2.13;2.03;;;0.70;95.40;;;;;;5051128;28;20289;-73
2021/03/24 04:13:27;;;;;;;1.80;1.73;;;0.70;95.00;;;;;;5062961;28;20220;-73
2021/03/24 04:15:56;;;;;;;2.23;2.13;;;0.70;94.80;;;;;;5047738;28;20191;-73
2021/03/24 04:18:34;;;;;;;2.23;2.10;;;0.70;94.60;;;;;;5056936;28;20872;-73
2021/03/24 04:21:02;;;;;;;5.60;2.60;;;0.70;94.40;;;;;;5050193;28;20611;-73
2021/03/24 04:23:32;;;;;;;2.83;2.53;;;0.70;94.30;;;;;;5059385;28;20200;-73
2021/03/24 04:26:05;;;;;;;4.27;3.00;;;0.70;94.20;;;;;;5057759;28;20656;-73
2021/03/24 04:28:35;;;;;;;3.37;3.17;;;0.70;94.20;;;;;;5057884;28;20179;-73
2021/03/24 04:31:07;;;;;;;3.07;2.20;;;0.70;94.30;;;;;;5066176;28;20171;-73
2021/03/24 04:33:33;;;;;;;4.47;2.87;;;0.70;94.30;;;;;;5043227;28;20184;-72
2021/03/24 04:36:22;;;;;;;3.37;2.77;;;0.70;94.50;;;;;;5053832;28;20179;-73
2021/03/24 04:38:55;;;;;;;5.70;2.60;;;0.80;94.50;;;;;;5061545;28;20191;-73
2021/03/24 04:41:28;;;;;;;3.73;3.07;;;0.80;94.40;;;;;;5058550;28;20181;-73
2021/03/24 04:44:01;;;;;;;2.47;2.33;;;0.80;94.70;;;;;;5062181;28;20182;-72
2021/03/24 04:46:34;;;;;;;2.40;2.30;;;0.80;95.00;;;;;;5067515;28;20238;-72
2021/03/24 04:49:05;;;;;;;3.60;3.30;;;0.80;95.30;;;;;;5056048;28;20199;-72
2021/03/24 04:51:34;;;;;;;5.43;3.60;;;0.80;95.70;;;;;;5053846;28;20574;-72
2021/03/24 04:54:30;;;;;;;5.17;3.30;;;0.80;95.90;;;;;;5049991;28;20657;-72
2021/03/24 04:57:03;;;;;;;4.87;3.83;;;0.80;95.90;;;;;;5066526;28;20194;-73
2021/03/24 04:59:37;;;;;;;3.93;3.63;;;0.80;95.80;;;;;;5042973;28;20233;-72
2021/03/24 05:02:09;;;;;;;3.63;3.40;;;0.90;95.70;;;;;;5044055;28;20242;-73
2021/03/24 05:04:47;;;;;;;3.13;2.83;;;0.90;95.50;;;;;;5063544;28;20228;-73
2021/03/24 05:07:49;;;;;;;3.00;2.87;;;0.90;95.60;;;;;;5057707;28;20843;-73
2021/03/24 05:10:25;;;;;;;2.10;2.00;;;0.90;95.70;;;;;;5064390;28;20200;-73
2021/03/24 05:13:15;;;;;;;3.07;2.87;;;1.00;95.80;;;;;;5063358;28;20264;-72
2021/03/24 05:15:45;;;;;;;4.13;3.17;;;0.90;96.00;;;;;;5062520;28;20282;-73
2021/03/24 05:18:14;;;;;;;3.70;3.03;;;0.90;96.10;;;;;;5049992;28;20209;-72
2021/03/24 05:20:46;;;;;;;3.40;3.20;;;0.80;96.10;;;;;;5053957;28;20187;-73
2021/03/24 05:23:16;;;;;;;2.77;2.60;;;0.80;96.20;;;;;;5057513;28;20179;-72
2021/03/24 05:25:44;;;;;;;2.87;2.70;;;0.80;96.20;;;;;;5050645;28;20207;-73
2021/03/24 05:28:17;;;;;;;4.67;2.30;;;0.90;96.40;;;;;;5053205;28;20180;-73
2021/03/24 05:30:59;;;;;;;2.63;2.53;;;1.00;96.60;;;;;;5061317;28;20179;-72
2021/03/24 05:33:28;;;;;;;2.40;1.80;;;1.00;96.70;;;;;;5061377;28;20725;-73
2021/03/24 05:35:57;;;;;;;2.57;2.43;;;1.10;96.60;;;;;;5081362;28;20727;-73
2021/03/24 05:38:35;;;;;;;2.20;2.10;;;1.10;96.70;;;;;;5057665;28;20217;-73
2021/03/24 05:41:20;;;;;;;2.90;2.80;;;1.10;96.80;;;;;;5045309;28;20222;-73
2021/03/24 05:44:04;;;;;;;2.10;1.90;;;1.20;96.70;;;;;;5062107;28;20183;-74
2021/03/24 05:46:58;;;;;;;2.63;2.30;;;1.20;96.50;;;;;;5054872;28;20606;-73
2021/03/24 05:49:57;;;;;;;2.43;2.33;;;1.20;96.40;;;;;;5055375;28;20179;-73
2021/03/24 05:52:41;;;;;;;2.13;1.80;;;1.20;96.30;;;;;;5053027;28;20680;-73
2021/03/24 05:55:26;;;;;;;2.40;2.03;;;1.20;96.20;;;;;;5034669;28;20204;-73
2021/03/24 05:58:35;;;;;;;1.80;1.70;;;1.20;95.80;;;;;;5051019;28;20183;-72
2021/03/24 06:01:03;;;;;;;1.20;1.20;;;1.20;95.40;;;;;;4996676;28;20817;-74
2021/03/24 06:03:56;;;;;;;1.53;1.53;;;1.20;94.80;;;;;;4985500;28;20193;-73
2021/03/24 06:06:34;;;;;;;1.90;1.77;;;1.30;94.90;;;;;;5002551;28;21103;-73
2021/03/24 06:09:42;;;;;;;1.00;1.00;;;1.30;95.00;;;;;;5002210;28;20187;-73
2021/03/24 06:12:31;;;;;;;1.30;1.20;;;1.50;95.30;;;;;;5018630;28;20196;-73
2021/03/24 06:15:21;;;;;;;1.00;1.00;;;1.60;95.30;;;;;;5003917;28;20189;-76
2021/03/24 06:18:20;;;;;;;3.70;0.90;;;1.70;94.80;;;;;;4988759;28;20204;-76
2021/03/24 06:20:46;;;;;;;2.33;1.10;;;1.70;94.00;;;;;;5020731;28;20275;-75
2021/03/24 06:23:35;;;;;;;1.40;1.40;;;1.80;93.90;;;;;;5021812;28;20287;-75
2021/03/24 06:26:22;;;;;;;0.93;0.93;;;1.90;93.30;;;;;;5004699;28;20225;-76
2021/03/24 06:29:06;;;;;;;0.63;0.60;;;2.00;93.00;;;;;;5004854;28;20192;-76
2021/03/24 06:32:05;;;;;;;1.27;1.20;;;2.10;93.00;;;;;;5004367;28;20197;-76
2021/03/24 06:35:04;;;;;;;1.33;1.20;;;2.20;92.80;;;;;;5021379;28;20185;-76
2021/03/24 06:37:55;;;;;;;1.13;0.90;;;2.30;92.50;;;;;;5041715;28;20202;-74
2021/03/24 06:40:41;;;;;;;0.50;0.50;;;2.40;92.00;;;;;;5048710;28;20186;-76
2021/03/24 06:43:25;;;;;;;0.47;0.47;;;2.40;91.30;;;;;;5052111;28;20234;-75
2021/03/24 06:46:28;;;;;;;0.47;0.47;;;2.40;90.90;;;;;;5040931;28;20562;-76
2021/03/24 06:49:23;;;;;;;0.50;0.50;;;2.50;90.50;;;;;;5053064;28;20175;-77
2021/03/24 06:52:13;;;;;;;0.30;0.30;;;2.50;89.70;;;;;;5047750;28;20179;-75
2021/03/24 06:54:47;;;;;;;0.30;0.30;;;2.50;89.10;;;;;;5047248;28;20237;-76
2021/03/24 06:57:16;;;;;;;0.10;0.10;;;2.60;87.70;;;;;;5051458;28;20187;-75
2021/03/24 07:00:06;;;;;;;0.20;0.20;;;2.70;86.10;;;;;;5045338;28;20267;-76
2021/03/24 07:03:09;;;;;;;4.43;0.20;;;2.70;84.00;;;;;;5036470;28;20198;-76
2021/03/24 07:06:02;;;;;;;0.10;0.10;;;2.70;81.20;;;;;;5046932;28;20187;-76
2021/03/24 07:09:00;;;;;;;0.20;0.20;;;2.70;81.90;;;;;;5043314;28;20698;-76
2021/03/24 07:11:47;;;;;;;0.20;0.20;;;2.70;82.20;;;;;;5046550;28;20210;-76
2021/03/24 07:14:50;;;;;;;0.33;0.33;;;2.80;82.00;;;;;;5063508;28;20230;-77
2021/03/24 07:17:27;;;;;;;0.20;0.20;;;2.90;81.40;;;;;;5046143;28;20233;-77
2021/03/24 07:20:19;;;;;;;0.20;0.20;;;3.10;80.10;;;;;;5047321;28;20266;-73
2021/03/24 07:23:15;;;;;;;0.20;0.20;;;3.20;79.70;;;;;;4994298;28;20195;-78
2021/03/24 07:25:49;;;;;;;0.20;0.20;;;3.30;78.80;;;;;;5006248;28;20243;-73
2021/03/24 07:28:40;;;;;;;0.23;0.20;;;3.30;77.60;;;;;;5008389;28;20300;-73
2021/03/24 07:31:38;;;;;;;0.97;0.17;;;3.20;77.40;;;;;;5009179;28;20226;-74
2021/03/24 07:34:14;;;;;;;0.33;0.33;;;3.10;77.20;;;;;;5013100;28;20219;-78
2021/03/24 07:37:02;;;;;;;0.20;0.20;;;3.00;76.20;;;;;;4992849;28;20188;-79
2021/03/24 07:39:58;;;;;;;0.10;0.10;;;2.90;76.40;;;;;;4992797;28;20184;-75
2021/03/24 07:42:41;;;;;;;0.23;0.23;;;2.70;76.90;;;;;;4990961;28;20341;-77
2021/03/24 07:45:31;;;;;;;0.50;0.50;;;2.60;77.00;;;;;;5003676;28;20177;-77
2021/03/24 07:48:47;;;;;;;0.77;0.30;;;2.50;77.20;;;;;;5026434;28;20274;-76
2021/03/24 07:51:35;;;;;;;0.10;0.10;;;2.40;77.60;;;;;;4933591;29;20239;-76
2021/03/24 07:54:11;;;;;;;0.30;0.30;;;2.30;78.00;;;;;;4931635;29;20768;-75
2021/03/24 07:56:57;;;;;;;0.23;0.23;;;2.30;78.10;;;;;;4943524;29;20223;-76
2021/03/24 07:59:50;;;;;;;0.20;0.20;;;2.30;78.90;;;;;;4934063;28;20198;-75
2021/03/24 08:02:51;;;;;;;0.30;0.30;;;2.30;78.20;;;;;;4973639;28;20621;-76
2021/03/24 08:05:50;;;;;;;0.27;0.27;;;2.20;78.80;;;;;;4990221;28;20235;-76
2021/03/24 08:08:27;;;;;;;0.30;0.20;;;2.20;78.30;;;;;;4973254;28;20212;-76
2021/03/24 08:11:05;;;;;;;0.20;0.20;;;2.20;77.00;;;;;;4986761;28;20201;-76
2021/03/24 08:13:42;;;;;;;0.40;0.40;;;2.10;78.00;;;;;;4987192;28;20278;-74
2021/03/24 08:16:27;;;;;;;0.23;0.23;;;2.20;78.00;;;;;;4970055;28;20813;-75
2021/03/24 08:19:03;;;;;;;0.40;0.30;;;2.20;77.80;;;;;;4982232;28;20557;-78
2021/03/24 08:21:45;;;;;;;0.30;0.30;;;2.20;77.50;;;;;;4993458;28;20295;-76
2021/03/24 08:24:29;;;;;;;0.20;0.20;;;2.20;78.40;;;;;;4991459;28;20737;-76
2021/03/24 08:27:02;;;;;;;0.93;0.50;;;2.30;77.50;;;;;;5047274;28;20229;-76
2021/03/24 08:29:50;;;;;;;0.40;0.40;;;2.40;77.60;;;;;;5060849;28;20775;-76
2021/03/24 08:32:34;;;;;;;0.60;0.40;;;2.50;78.00;;;;;;5084697;28;20606;-76
2021/03/24 08:35:27;;;;;;;0.23;0.23;;;2.60;77.90;;;;;;5041183;28;20634;-77
2021/03/24 08:38:24;;;;;;;0.23;0.23;;;2.60;77.50;;;;;;5055157;28;20191;-78
2021/03/24 08:41:11;;;;;;;0.30;0.30;;;2.70;77.20;;;;;;5051547;28;20268;-75
2021/03/24 08:43:42;;;;;;;0.63;0.40;;;2.80;77.20;;;;;;5046670;28;20249;-77
2021/03/24 08:46:17;;;;;;;0.60;0.60;;;2.90;77.20;;;;;;5039706;28;20857;-75
2021/03/24 08:48:57;;;;;;;1.30;0.67;;;3.00;76.90;;;;;;5049772;28;20178;-75
2021/03/24 08:51:56;;;;;;;0.73;0.60;;;3.00;76.70;;;;;;5049665;28;20682;-76
2021/03/24 08:54:46;;;;;;;0.67;0.60;;;3.00;77.20;;;;;;5054074;28;20176;-79
2021/03/24 08:57:21;;;;;;;0.40;0.40;;;3.10;77.40;;;;;;5044437;28;20281;-76
2021/03/24 08:59:51;;;;;;;0.73;0.53;;;3.10;77.70;;;;;;5038047;28;20242;-76
2021/03/24 09:02:37;;;;;;;0.43;0.43;;;3.10;76.60;;;;;;5054193;28;20202;-77
2021/03/24 09:05:08;;;;;;;0.77;0.77;;;3.00;77.40;;;;;;5062167;28;20187;-76
2021/03/24 09:07:36;;;;;;;0.90;0.80;;;3.10;78.20;;;;;;5077923;28;20211;-77
2021/03/24 09:10:30;;;;;;;0.60;0.60;;;3.10;78.60;;;;;;5047157;28;20203;-76
2021/03/24 09:13:16;;;;;;;0.40;0.40;;;3.20;77.50;;;;;;5047022;28;20674;-77
2021/03/24 09:15:50;;;;;;;0.83;0.60;;;3.20;75.90;;;;;;5050600;28;20173;-76
2021/03/24 09:18:38;;;;;;;0.60;0.43;;;3.20;75.50;;;;;;5045961;28;20744;-76
2021/03/24 09:21:38;;;;;;;1.03;0.63;;;3.20;76.60;;;;;;5044511;28;20207;-75
2021/03/24 09:24:38;;;;;;;0.50;0.50;;;3.20;77.00;;;;;;5006401;28;20288;-76
2021/03/24 09:27:12;;;;;;;1.23;0.63;;;3.20;75.60;;;;;;4991105;28;20729;-76
2021/03/24 09:30:25;;;;;;;0.10;0.10;;;3.10;74.50;;;;;;5005262;28;20200;-76
2021/03/24 09:33:15;;;;;;;0.20;0.20;;;3.20;75.20;;;;;;4955229;28;20190;-76
2021/03/24 09:36:11;;;;;;;0.23;0.20;;;3.40;74.50;;;;;;4953659;28;20301;-75
2021/03/24 09:38:40;;;;;;;0.40;0.40;;;3.70;73.60;;;;;;4946400;28;20206;-76
2021/03/24 09:41:18;;;;;;;0.50;0.50;;;3.90;72.00;;;;;;4975017;28;20207;-77
2021/03/24 09:44:01;;;;;;;0.30;0.30;;;4.10;71.80;;;;;;4965388;28;20194;-76
2021/03/24 09:46:41;;;;;;;0.30;0.30;;;4.20;72.00;;;;;;4944932;28;20272;-75
2021/03/24 09:49:36;;;;;;;0.20;0.20;;;4.20;70.70;;;;;;4945027;28;20401;-77
2021/03/24 09:52:10;;;;;;;0.40;0.40;;;4.20;69.90;;;;;;4947620;28;20290;-76
2021/03/24 09:54:36;;;;;;;0.63;0.40;;;4.20;71.20;;;;;;4940650;28;20252;-75
2021/03/24 09:57:08;;;;;;;0.30;0.30;;;4.10;70.10;;;;;;4947180;28;20775;-76
2021/03/24 10:00:03;;;;;;;0.30;0.30;;;4.10;69.70;;;;;;4951508;28;20191;-76
2021/03/24 10:02:38;;;;;;;0.77;0.20;;;3.90;70.10;;;;;;4980464;28;20194;-75
2021/03/24 10:05:08;;;;;;;0.30;0.30;;;3.90;70.50;;;;;;5079947;28;20248;-77
2021/03/24 10:07:41;;;;;;;0.50;0.50;;;3.80;70.00;;;;;;5048207;28;20211;-79
2021/03/24 10:10:27;;;;;;;0.40;0.40;;;3.70;71.30;;;;;;5035536;28;20185;-78
2021/03/24 10:13:02;;;;;;;0.20;0.20;;;3.70;71.30;;;;;;5045203;28;20183;-76
2021/03/24 10:15:34;;;;;;;2.30;0.50;;;3.60;72.20;;;;;;5046170;28;20175;-76
2021/03/24 10:18:10;;;;;;;0.20;0.20;;;3.40;71.60;;;;;;5045368;28;20238;-77
2021/03/24 10:20:39;;;;;;;0.30;0.30;;;3.20;72.10;;;;;;5044276;28;20183;-76
2021/03/24 10:23:14;;;;;;;0.33;0.33;;;3.10;73.00;;;;;;5042243;28;20229;-76
2021/03/24 10:25:46;;;;;;;0.30;0.30;;;3.10;71.30;;;;;;5040576;28;20203;-76
2021/03/24 10:28:21;;;;;;;0.27;0.27;;;3.00;72.00;;;;;;5042888;28;20182;-81
2021/03/24 10:30:58;;;;;;;0.60;0.60;;;3.10;73.40;;;;;;5046850;28;20210;-75
2021/03/24 10:33:41;;;;;;;0.20;0.20;;;3.20;73.20;;;;;;5047017;28;20597;-77
2021/03/24 10:36:29;;;;;;;0.23;0.23;;;3.50;72.60;;;;;;5046936;28;20198;-77
2021/03/24 10:39:23;;;;;;;0.67;0.20;;;4.20;70.40;;;;;;5059478;28;20206;-75
2021/03/24 10:41:51;;;;;;;0.30;0.30;;;4.80;68.60;;;;;;5046461;28;20183;-76
2021/03/24 10:44:42;;;;;;;0.30;0.30;;;5.20;66.30;;;;;;5045334;28;20262;-75
2021/03/24 10:47:34;;;;;;;0.30;0.30;;;5.60;64.80;;;;;;5050846;28;20310;-77
2021/03/24 10:50:09;;;;;;;0.40;0.40;;;6.00;63.80;;;;;;5041019;28;20268;-78
2021/03/24 10:52:41;;;;;;;0.40;0.40;;;6.10;64.00;;;;;;5047699;28;20182;-77
2021/03/24 10:55:18;;;;;;;0.40;0.40;;;6.10;62.20;;;;;;5034809;28;20198;-76
2021/03/24 10:57:56;;;;;;;1.50;0.37;;;6.00;62.60;;;;;;5047282;28;20186;-78
2021/03/24 11:00:39;;;;;;;1.50;0.40;;;5.90;63.00;;;;;;5043332;28;20633;-77
2021/03/24 11:03:05;;;;;;;1.10;0.60;;;5.80;62.90;;;;;;5045240;28;20267;-82
2021/03/24 11:05:42;;;;;;;1.03;0.40;;;5.80;64.00;;;;;;5045730;28;20274;-81
2021/03/24 11:08:40;;;;;;;0.40;0.40;;;5.70;64.40;;;;;;5065421;28;20284;-80
2021/03/24 11:11:24;;;;;;;0.60;0.60;;;5.80;65.50;;;;;;5052810;28;20215;-79
2021/03/24 11:13:49;;;;;;;0.60;0.60;;;5.80;63.10;;;;;;5057107;28;20170;-79
2021/03/24 11:16:29;;;;;;;0.40;0.40;;;5.60;64.40;;;;;;5055006;28;20179;-80
2021/03/24 11:19:24;;;;;;;0.30;0.30;;;5.50;64.50;;;;;;5050400;28;20186;-79
2021/03/24 11:22:14;;;;;;;0.40;0.30;;;5.50;62.60;;;;;;5043344;28;20188;-78
2021/03/24 11:24:55;;;;;;;0.27;0.27;;;5.50;61.70;;;;;;5051742;28;20595;-75
2021/03/24 11:27:42;;;;;;;0.30;0.30;;;5.50;61.90;;;;;;5043352;28;20721;-76
2021/03/24 11:30:31;;;;;;;0.67;0.67;;;5.40;61.20;;;;;;5046688;28;20241;-78
2021/03/24 11:33:14;;;;;;;0.70;0.50;;;5.40;60.20;;;;;;5062332;28;20679;-81
2021/03/24 11:35:55;;;;;;;0.40;0.30;;;5.50;61.80;;;;;;5049002;28;20182;-84
2021/03/24 11:38:36;;;;;;;0.70;0.57;;;5.50;60.60;;;;;;5048051;28;20171;-82
2021/03/24 11:41:14;;;;;;;0.20;0.20;;;5.70;61.40;;;;;;5052465;28;20180;-81
2021/03/24 11:43:44;;;;;;;0.50;0.50;;;5.90;59.60;;;;;;5084582;28;20187;-81
2021/03/24 11:46:25;;;;;;;1.90;0.50;;;6.20;59.80;;;;;;5045131;28;20283;-82
2021/03/24 11:49:00;;;;;;;0.30;0.30;;;6.50;59.40;;;;;;5051677;28;20183;-80
2021/03/24 11:51:46;;;;;;;1.53;0.57;;;6.90;57.90;;;;;;5051649;28;20649;-81
2021/03/24 11:54:27;;;;;;;0.43;0.43;;;7.70;57.70;;;;;;5043773;28;20184;-82
2021/03/24 11:57:04;;;;;;;0.40;0.40;;;8.90;56.20;;;;;;5082505;28;20298;-81
2021/03/24 11:59:41;;;;;;;1.80;0.50;;;10.20;55.40;;;;;;5080223;28;20636;-82
2021/03/24 12:02:22;;;;;;;0.97;0.60;;;11.60;53.00;;;;;;5074197;28;20915;-82
2021/03/24 12:05:12;;;;;;;0.30;0.30;;;13.00;51.50;;;;;;5081057;28;20198;-81
2021/03/24 12:07:44;;;;;;;0.57;0.52;;;14.50;48.60;;;;;;5046148;28;20200;-81
2021/03/24 12:10:26;;;;;;;0.30;0.30;;;15.70;48.00;;;;;;5053114;28;20185;-82
2021/03/24 12:13:20;;;;;;;1.60;0.50;;;16.70;45.20;;;;;;5051640;28;20182;-81
2021/03/24 12:16:09;;;;;;;0.50;0.50;;;17.50;45.40;;;;;;5042309;28;20200;-82
2021/03/24 12:18:47;;;;;;;0.63;0.63;;;18.20;45.30;;;;;;5041037;28;20179;-82
2021/03/24 12:21:33;;;;;;;0.40;0.40;;;18.90;46.20;;;;;;5048617;28;20211;-81
2021/03/24 12:24:02;;;;;;;0.50;0.50;;;19.30;44.00;;;;;;5047574;28;20223;-82
2021/03/24 12:26:36;;;;;;;0.68;0.68;;;19.40;44.70;;;;;;5047564;28;20330;-81
2021/03/24 12:29:26;;;;;;;0.47;0.47;;;19.40;43.20;;;;;;5045593;28;20179;-82
2021/03/24 12:31:57;;;;;;;1.27;0.65;;;19.00;39.50;;;;;;5044884;28;20176;-82
2021/03/24 12:34:24;;;;;;;1.65;0.45;;;19.00;45.10;;;;;;5040098;28;20188;-81
2021/03/24 12:36:56;;;;;;;0.60;0.60;;;19.00;43.20;;;;;;5044131;28;20187;-82
2021/03/24 12:39:31;;;;;;;0.77;0.70;;;19.20;41.80;;;;;;5047032;28;20190;-81
2021/03/24 12:42:09;;;;;;;0.50;0.50;;;18.40;41.30;;;;;;5051287;28;20740;-81
2021/03/24 12:44:42;;;;;;;0.77;0.60;;;18.00;41.70;;;;;;5048791;28;20179;-83
2021/03/24 12:47:38;;;;;;;0.45;0.45;;;17.70;45.10;;;;;;5049388;28;20204;-79
2021/03/24 12:50:14;;;;;;;1.73;0.60;;;18.10;44.20;;;;;;5051349;28;20271;-83
2021/03/24 12:53:06;;;;;;;0.60;0.60;;;18.50;44.30;;;;;;5066960;28;20613;-79
2021/03/24 12:55:31;;;;;;;0.60;0.60;;;18.90;44.60;;;;;;5051442;28;20256;-76
2021/03/24 12:58:48;;;;;;;1.27;0.70;;;19.40;42.30;;;;;;5055706;28;20183;-82
2021/03/24 13:01:35;;;;;;;0.60;0.60;;;19.70;40.90;;;;;;5044520;28;20908;-79
2021/03/24 13:04:09;;;;;;;0.90;0.85;;;19.80;41.80;;;;;;5026314;28;20204;-79
2021/03/24 13:06:47;;;;;;;1.00;0.98;;;19.30;45.10;;;;;;5046921;28;20203;-78
2021/03/24 13:09:37;;;;;;;0.75;0.75;;;18.90;42.90;;;;;;5019196;28;20253;-79
2021/03/24 13:12:16;;;;;;;0.85;0.85;;;18.30;40.70;;;;;;5015233;28;20195;-78
2021/03/24 13:15:10;;;;;;;0.60;0.60;;;17.70;40.80;;;;;;5010259;28;20329;-77
2021/03/24 13:17:47;;;;;;;1.63;0.75;;;17.50;41.00;;;;;;5005810;28;20286;-78
2021/03/24 13:20:30;;;;;;;1.20;0.80;;;17.90;41.60;;;;;;5001623;28;20189;-77
2021/03/24 13:22:56;;;;;;;0.57;0.57;;;18.30;41.60;;;;;;4992033;28;20583;-77
2021/03/24 13:25:42;;;;;;;0.70;0.70;;;19.00;40.80;;;;;;5003879;28;20193;-78
2021/03/24 13:28:16;;;;;;;2.15;0.55;;;19.60;41.00;;;;;;4988452;28;20245;-79
2021/03/24 13:31:21;;;;;;;0.70;0.70;;;19.90;40.40;;;;;;4999884;28;20177;-79
2021/03/24 13:34:02;;;;;;;1.20;0.50;;;20.10;40.20;;;;;;4901636;29;20279;-78
2021/03/24 13:36:27;;;;;;;0.70;0.70;;;20.40;38.30;;;;;;4916358;29;20199;-78
2021/03/24 13:39:15;;;;;;;4.47;0.57;;;20.60;38.70;;;;;;4926738;29;20203;-78
2021/03/24 13:41:46;;;;;;;0.63;0.57;;;20.70;38.90;;;;;;4915573;29;20743;-78
2021/03/24 13:44:22;;;;;;;0.50;0.50;;;20.90;38.90;;;;;;4911791;29;20243;-78
2021/03/24 13:46:57;;;;;;;0.50;0.50;;;21.00;38.20;;;;;;4911010;29;20613;-77
2021/03/24 13:49:26;;;;;;;0.60;0.60;;;21.40;38.70;;;;;;4881921;29;20279;-77
2021/03/24 13:52:21;;;;;;;2.45;0.50;;;21.70;40.20;;;;;;4911431;29;20283;-78